sensor_id;sensor_type;location;lat;lon;timestamp;P1;durP1;ratioP1;P2;durP2;ratioP2
54705;SDS011;40603;48.774;8.916;2023-06-10T00:00:37;6.60;;;5.65;;
54705;SDS011;40603;48.774;8.916;2023-06-10T00:03:02;7.35;;;5.72;;
54705;SDS011;40603;48.774;8.916;2023-06-10T00:05:28;7.57;;;5.72;;
54705;SDS011;40603;48.774;8.916;2023-06-10T00:07:56;7.85;;;5.80;;
54705;SDS011;40603;48.774;8.916;2023-06-10T00:10:22;9.63;;;6.28;;
54705;SDS011;40603;48.774;8.916;2023-06-10T00:12:49;7.35;;;5.28;;
54705;SDS011;40603;48.774;8.916;2023-06-10T00:15:14;7.97;;;6.30;;
54705;SDS011;40603;48.774;8.916;2023-06-10T00:17:40;8.23;;;6.05;;
54705;SDS011;40603;48.774;8.916;2023-06-10T00:20:09;6.40;;;5.70;;
54705;SDS011;40603;48.774;8.916;2023-06-10T00:22:36;8.25;;;6.35;;
54705;SDS011;40603;48.774;8.916;2023-06-10T00:25:03;10.20;;;6.13;;
54705;SDS011;40603;48.774;8.916;2023-06-10T00:27:29;8.88;;;5.85;;
54705;SDS011;40603;48.774;8.916;2023-06-10T00:29:59;7.50;;;6.30;;
54705;SDS011;40603;48.774;8.916;2023-06-10T00:32:25;8.38;;;6.25;;
54705;SDS011;40603;48.774;8.916;2023-06-10T00:34:51;7.20;;;6.10;;
54705;SDS011;40603;48.774;8.916;2023-06-10T00:37:16;9.05;;;6.10;;
54705;SDS011;40603;48.774;8.916;2023-06-10T00:39:41;7.55;;;5.78;;
54705;SDS011;40603;48.774;8.916;2023-06-10T00:42:07;9.35;;;6.15;;
54705;SDS011;40603;48.774;8.916;2023-06-10T00:44:32;7.13;;;6.32;;
54705;SDS011;40603;48.774;8.916;2023-06-10T00:46:57;9.93;;;6.30;;
54705;SDS011;40603;48.774;8.916;2023-06-10T00:49:23;8.75;;;5.72;;
54705;SDS011;40603;48.774;8.916;2023-06-10T00:51:48;8.40;;;5.85;;
54705;SDS011;40603;48.774;8.916;2023-06-10T00:54:14;8.88;;;5.93;;
54705;SDS011;40603;48.774;8.916;2023-06-10T00:56:39;11.75;;;6.10;;
54705;SDS011;40603;48.774;8.916;2023-06-10T00:59:04;8.25;;;5.72;;
54705;SDS011;40603;48.774;8.916;2023-06-10T01:01:30;8.00;;;6.22;;
54705;SDS011;40603;48.774;8.916;2023-06-10T01:03:55;10.43;;;6.03;;
54705;SDS011;40603;48.774;8.916;2023-06-10T01:06:26;8.55;;;6.43;;
54705;SDS011;40603;48.774;8.916;2023-06-10T01:09:13;9.10;;;6.28;;
54705;SDS011;40603;48.774;8.916;2023-06-10T01:14:37;6.95;;;5.90;;
54705;SDS011;40603;48.774;8.916;2023-06-10T01:17:03;7.32;;;6.18;;
54705;SDS011;40603;48.774;8.916;2023-06-10T01:19:29;6.22;;;5.47;;
54705;SDS011;40603;48.774;8.916;2023-06-10T01:21:56;9.25;;;6.15;;
54705;SDS011;40603;48.774;8.916;2023-06-10T01:24:25;7.70;;;6.72;;
54705;SDS011;40603;48.774;8.916;2023-06-10T01:26:50;8.05;;;6.00;;
54705;SDS011;40603;48.774;8.916;2023-06-10T01:29:17;10.55;;;6.55;;
54705;SDS011;40603;48.774;8.916;2023-06-10T01:31:49;10.55;;;6.30;;
54705;SDS011;40603;48.774;8.916;2023-06-10T01:34:17;8.57;;;6.15;;
54705;SDS011;40603;48.774;8.916;2023-06-10T01:36:44;7.95;;;6.50;;
54705;SDS011;40603;48.774;8.916;2023-06-10T01:39:12;8.10;;;6.43;;
54705;SDS011;40603;48.774;8.916;2023-06-10T01:41:38;10.50;;;7.20;;
54705;SDS011;40603;48.774;8.916;2023-06-10T01:44:04;8.32;;;7.03;;
54705;SDS011;40603;48.774;8.916;2023-06-10T01:46:29;11.18;;;7.32;;
54705;SDS011;40603;48.774;8.916;2023-06-10T01:48:55;12.35;;;7.00;;
54705;SDS011;40603;48.774;8.916;2023-06-10T01:51:21;9.55;;;7.03;;
54705;SDS011;40603;48.774;8.916;2023-06-10T01:53:46;9.32;;;6.40;;
54705;SDS011;40603;48.774;8.916;2023-06-10T01:56:11;14.88;;;6.70;;
54705;SDS011;40603;48.774;8.916;2023-06-10T01:58:41;8.27;;;6.35;;
54705;SDS011;40603;48.774;8.916;2023-06-10T02:01:07;7.75;;;6.88;;
54705;SDS011;40603;48.774;8.916;2023-06-10T02:03:32;13.60;;;7.10;;
54705;SDS011;40603;48.774;8.916;2023-06-10T02:05:57;10.55;;;7.03;;
54705;SDS011;40603;48.774;8.916;2023-06-10T02:08:23;8.82;;;6.57;;
54705;SDS011;40603;48.774;8.916;2023-06-10T02:10:48;8.00;;;6.50;;
54705;SDS011;40603;48.774;8.916;2023-06-10T02:13:13;9.75;;;6.60;;
54705;SDS011;40603;48.774;8.916;2023-06-10T02:15:39;8.48;;;6.78;;
54705;SDS011;40603;48.774;8.916;2023-06-10T02:18:04;10.20;;;7.35;;
54705;SDS011;40603;48.774;8.916;2023-06-10T02:20:29;7.10;;;6.38;;
54705;SDS011;40603;48.774;8.916;2023-06-10T02:22:55;10.68;;;6.65;;
54705;SDS011;40603;48.774;8.916;2023-06-10T02:25:20;8.02;;;6.63;;
54705;SDS011;40603;48.774;8.916;2023-06-10T02:27:45;10.82;;;6.75;;
54705;SDS011;40603;48.774;8.916;2023-06-10T02:30:11;8.88;;;7.00;;
54705;SDS011;40603;48.774;8.916;2023-06-10T02:32:36;9.18;;;6.45;;
54705;SDS011;40603;48.774;8.916;2023-06-10T02:35:02;9.10;;;6.75;;
54705;SDS011;40603;48.774;8.916;2023-06-10T02:37:27;8.07;;;6.40;;
54705;SDS011;40603;48.774;8.916;2023-06-10T02:39:52;7.65;;;6.50;;
54705;SDS011;40603;48.774;8.916;2023-06-10T02:42:18;7.10;;;6.05;;
54705;SDS011;40603;48.774;8.916;2023-06-10T02:44:44;6.70;;;5.97;;
54705;SDS011;40603;48.774;8.916;2023-06-10T02:47:09;8.43;;;6.35;;
54705;SDS011;40603;48.774;8.916;2023-06-10T02:49:34;9.07;;;6.43;;
54705;SDS011;40603;48.774;8.916;2023-06-10T02:52:00;7.40;;;6.25;;
54705;SDS011;40603;48.774;8.916;2023-06-10T02:54:26;7.82;;;6.30;;
54705;SDS011;40603;48.774;8.916;2023-06-10T02:56:51;10.63;;;7.80;;
54705;SDS011;40603;48.774;8.916;2023-06-10T02:59:17;8.57;;;5.97;;
54705;SDS011;40603;48.774;8.916;2023-06-10T03:01:42;8.93;;;6.97;;
54705;SDS011;40603;48.774;8.916;2023-06-10T03:04:08;9.25;;;6.95;;
54705;SDS011;40603;48.774;8.916;2023-06-10T03:06:34;9.10;;;6.78;;
54705;SDS011;40603;48.774;8.916;2023-06-10T03:09:00;8.73;;;7.03;;
54705;SDS011;40603;48.774;8.916;2023-06-10T03:11:25;12.45;;;6.55;;
54705;SDS011;40603;48.774;8.916;2023-06-10T03:13:51;10.40;;;6.28;;
54705;SDS011;40603;48.774;8.916;2023-06-10T03:16:17;8.35;;;6.82;;
54705;SDS011;40603;48.774;8.916;2023-06-10T03:18:42;8.90;;;6.82;;
54705;SDS011;40603;48.774;8.916;2023-06-10T03:21:07;10.10;;;6.20;;
54705;SDS011;40603;48.774;8.916;2023-06-10T03:23:33;8.73;;;6.03;;
54705;SDS011;40603;48.774;8.916;2023-06-10T03:25:59;9.25;;;6.68;;
54705;SDS011;40603;48.774;8.916;2023-06-10T03:28:25;10.05;;;6.72;;
54705;SDS011;40603;48.774;8.916;2023-06-10T03:30:50;9.77;;;6.95;;
54705;SDS011;40603;48.774;8.916;2023-06-10T03:33:16;9.45;;;6.53;;
54705;SDS011;40603;48.774;8.916;2023-06-10T03:35:42;8.20;;;6.40;;
54705;SDS011;40603;48.774;8.916;2023-06-10T03:38:07;8.38;;;6.72;;
54705;SDS011;40603;48.774;8.916;2023-06-10T03:40:32;8.85;;;6.47;;
54705;SDS011;40603;48.774;8.916;2023-06-10T03:42:58;9.90;;;6.63;;
54705;SDS011;40603;48.774;8.916;2023-06-10T03:45:23;8.18;;;6.93;;
54705;SDS011;40603;48.774;8.916;2023-06-10T03:47:49;7.70;;;6.32;;
54705;SDS011;40603;48.774;8.916;2023-06-10T03:50:15;7.45;;;6.63;;
54705;SDS011;40603;48.774;8.916;2023-06-10T03:52:40;8.13;;;6.63;;
54705;SDS011;40603;48.774;8.916;2023-06-10T03:55:06;8.13;;;6.95;;
54705;SDS011;40603;48.774;8.916;2023-06-10T03:57:32;9.07;;;7.38;;
54705;SDS011;40603;48.774;8.916;2023-06-10T03:59:57;9.05;;;7.18;;
54705;SDS011;40603;48.774;8.916;2023-06-10T04:02:23;9.55;;;7.68;;
54705;SDS011;40603;48.774;8.916;2023-06-10T04:04:48;9.95;;;6.93;;
54705;SDS011;40603;48.774;8.916;2023-06-10T04:07:13;8.18;;;7.03;;
54705;SDS011;40603;48.774;8.916;2023-06-10T04:09:39;8.07;;;7.25;;
54705;SDS011;40603;48.774;8.916;2023-06-10T04:12:04;10.95;;;7.25;;
54705;SDS011;40603;48.774;8.916;2023-06-10T04:14:33;7.97;;;6.68;;
54705;SDS011;40603;48.774;8.916;2023-06-10T04:16:58;11.10;;;7.20;;
54705;SDS011;40603;48.774;8.916;2023-06-10T04:19:24;8.85;;;6.80;;
54705;SDS011;40603;48.774;8.916;2023-06-10T04:21:49;9.63;;;7.22;;
54705;SDS011;40603;48.774;8.916;2023-06-10T04:24:15;9.18;;;7.32;;
54705;SDS011;40603;48.774;8.916;2023-06-10T04:26:40;7.85;;;6.50;;
54705;SDS011;40603;48.774;8.916;2023-06-10T04:29:05;10.82;;;7.53;;
54705;SDS011;40603;48.774;8.916;2023-06-10T04:31:30;9.40;;;6.40;;
54705;SDS011;40603;48.774;8.916;2023-06-10T04:33:57;8.02;;;6.13;;
54705;SDS011;40603;48.774;8.916;2023-06-10T04:36:22;10.40;;;7.07;;
54705;SDS011;40603;48.774;8.916;2023-06-10T04:38:48;10.77;;;7.13;;
54705;SDS011;40603;48.774;8.916;2023-06-10T04:41:13;8.70;;;6.93;;
54705;SDS011;40603;48.774;8.916;2023-06-10T04:43:39;11.15;;;7.97;;
54705;SDS011;40603;48.774;8.916;2023-06-10T04:46:04;10.10;;;7.55;;
54705;SDS011;40603;48.774;8.916;2023-06-10T04:48:30;11.30;;;7.95;;
54705;SDS011;40603;48.774;8.916;2023-06-10T04:50:55;9.20;;;7.82;;
54705;SDS011;40603;48.774;8.916;2023-06-10T04:53:21;11.23;;;7.75;;
54705;SDS011;40603;48.774;8.916;2023-06-10T04:55:47;9.82;;;7.57;;
54705;SDS011;40603;48.774;8.916;2023-06-10T04:58:13;8.57;;;7.60;;
54705;SDS011;40603;48.774;8.916;2023-06-10T05:00:38;10.25;;;6.70;;
54705;SDS011;40603;48.774;8.916;2023-06-10T05:03:03;10.30;;;7.10;;
54705;SDS011;40603;48.774;8.916;2023-06-10T05:05:29;9.77;;;6.93;;
54705;SDS011;40603;48.774;8.916;2023-06-10T05:07:54;9.25;;;7.10;;
54705;SDS011;40603;48.774;8.916;2023-06-10T05:10:20;11.10;;;7.38;;
54705;SDS011;40603;48.774;8.916;2023-06-10T05:12:45;9.45;;;7.32;;
54705;SDS011;40603;48.774;8.916;2023-06-10T05:15:10;12.10;;;7.65;;
54705;SDS011;40603;48.774;8.916;2023-06-10T05:17:36;9.70;;;7.47;;
54705;SDS011;40603;48.774;8.916;2023-06-10T05:20:02;10.85;;;7.65;;
54705;SDS011;40603;48.774;8.916;2023-06-10T05:22:27;13.57;;;7.78;;
54705;SDS011;40603;48.774;8.916;2023-06-10T05:24:53;10.48;;;6.97;;
54705;SDS011;40603;48.774;8.916;2023-06-10T05:27:18;8.85;;;6.90;;
54705;SDS011;40603;48.774;8.916;2023-06-10T05:29:44;8.25;;;7.32;;
54705;SDS011;40603;48.774;8.916;2023-06-10T05:32:10;9.93;;;6.68;;
54705;SDS011;40603;48.774;8.916;2023-06-10T05:34:35;8.80;;;7.00;;
54705;SDS011;40603;48.774;8.916;2023-06-10T05:37:01;8.25;;;7.43;;
54705;SDS011;40603;48.774;8.916;2023-06-10T05:39:26;9.65;;;7.47;;
54705;SDS011;40603;48.774;8.916;2023-06-10T05:41:51;8.10;;;7.10;;
54705;SDS011;40603;48.774;8.916;2023-06-10T05:44:17;10.65;;;7.60;;
54705;SDS011;40603;48.774;8.916;2023-06-10T05:46:42;12.07;;;8.18;;
54705;SDS011;40603;48.774;8.916;2023-06-10T05:49:07;9.98;;;7.20;;
54705;SDS011;40603;48.774;8.916;2023-06-10T05:51:32;8.82;;;6.88;;
54705;SDS011;40603;48.774;8.916;2023-06-10T05:53:58;8.13;;;6.68;;
54705;SDS011;40603;48.774;8.916;2023-06-10T05:56:23;11.55;;;6.43;;
54705;SDS011;40603;48.774;8.916;2023-06-10T05:58:49;7.30;;;6.10;;
54705;SDS011;40603;48.774;8.916;2023-06-10T06:01:14;8.63;;;6.07;;
54705;SDS011;40603;48.774;8.916;2023-06-10T06:03:40;9.02;;;6.35;;
54705;SDS011;40603;48.774;8.916;2023-06-10T06:06:05;6.53;;;5.45;;
54705;SDS011;40603;48.774;8.916;2023-06-10T06:08:30;7.97;;;6.38;;
54705;SDS011;40603;48.774;8.916;2023-06-10T06:10:56;8.07;;;6.55;;
54705;SDS011;40603;48.774;8.916;2023-06-10T06:13:21;6.43;;;5.72;;
54705;SDS011;40603;48.774;8.916;2023-06-10T06:15:46;7.00;;;6.30;;
54705;SDS011;40603;48.774;8.916;2023-06-10T06:18:12;8.50;;;6.57;;
54705;SDS011;40603;48.774;8.916;2023-06-10T06:20:37;6.57;;;5.50;;
54705;SDS011;40603;48.774;8.916;2023-06-10T06:23:02;7.72;;;6.18;;
54705;SDS011;40603;48.774;8.916;2023-06-10T06:25:28;6.72;;;5.18;;
54705;SDS011;40603;48.774;8.916;2023-06-10T06:27:53;6.82;;;5.93;;
54705;SDS011;40603;48.774;8.916;2023-06-10T06:30:18;8.23;;;5.75;;
54705;SDS011;40603;48.774;8.916;2023-06-10T06:32:44;8.88;;;5.82;;
54705;SDS011;40603;48.774;8.916;2023-06-10T06:35:09;5.78;;;5.13;;
54705;SDS011;40603;48.774;8.916;2023-06-10T06:37:35;6.95;;;5.80;;
54705;SDS011;40603;48.774;8.916;2023-06-10T06:40:01;9.18;;;5.80;;
54705;SDS011;40603;48.774;8.916;2023-06-10T06:42:26;7.55;;;5.60;;
54705;SDS011;40603;48.774;8.916;2023-06-10T06:44:51;8.07;;;6.50;;
54705;SDS011;40603;48.774;8.916;2023-06-10T06:47:17;8.77;;;5.55;;
54705;SDS011;40603;48.774;8.916;2023-06-10T06:49:46;7.13;;;5.65;;
54705;SDS011;40603;48.774;8.916;2023-06-10T06:52:11;8.93;;;5.70;;
54705;SDS011;40603;48.774;8.916;2023-06-10T06:54:37;8.20;;;5.05;;
54705;SDS011;40603;48.774;8.916;2023-06-10T06:57:02;7.68;;;6.10;;
54705;SDS011;40603;48.774;8.916;2023-06-10T06:59:27;5.88;;;5.28;;
54705;SDS011;40603;48.774;8.916;2023-06-10T07:01:53;8.38;;;5.38;;
54705;SDS011;40603;48.774;8.916;2023-06-10T07:04:19;5.40;;;4.68;;
54705;SDS011;40603;48.774;8.916;2023-06-10T07:06:46;5.85;;;4.70;;
54705;SDS011;40603;48.774;8.916;2023-06-10T07:09:12;5.57;;;4.55;;
54705;SDS011;40603;48.774;8.916;2023-06-10T07:11:37;6.30;;;4.55;;
54705;SDS011;40603;48.774;8.916;2023-06-10T07:14:02;5.85;;;5.10;;
54705;SDS011;40603;48.774;8.916;2023-06-10T07:16:28;5.90;;;4.85;;
54705;SDS011;40603;48.774;8.916;2023-06-10T07:18:53;5.90;;;4.53;;
54705;SDS011;40603;48.774;8.916;2023-06-10T07:21:18;5.35;;;4.18;;
54705;SDS011;40603;48.774;8.916;2023-06-10T07:23:44;6.03;;;4.25;;
54705;SDS011;40603;48.774;8.916;2023-06-10T07:26:09;5.55;;;4.50;;
54705;SDS011;40603;48.774;8.916;2023-06-10T07:28:36;5.20;;;4.70;;
54705;SDS011;40603;48.774;8.916;2023-06-10T07:31:02;5.45;;;4.85;;
54705;SDS011;40603;48.774;8.916;2023-06-10T07:33:28;6.75;;;4.75;;
54705;SDS011;40603;48.774;8.916;2023-06-10T07:35:53;6.38;;;4.10;;
54705;SDS011;40603;48.774;8.916;2023-06-10T07:38:18;5.43;;;4.15;;
54705;SDS011;40603;48.774;8.916;2023-06-10T07:40:43;6.80;;;4.47;;
54705;SDS011;40603;48.774;8.916;2023-06-10T07:43:09;6.95;;;5.03;;
54705;SDS011;40603;48.774;8.916;2023-06-10T07:45:34;6.45;;;4.80;;
54705;SDS011;40603;48.774;8.916;2023-06-10T07:47:59;6.78;;;4.55;;
54705;SDS011;40603;48.774;8.916;2023-06-10T07:50:25;6.22;;;4.95;;
54705;SDS011;40603;48.774;8.916;2023-06-10T07:52:50;5.05;;;4.55;;
54705;SDS011;40603;48.774;8.916;2023-06-10T07:55:15;5.32;;;4.70;;
54705;SDS011;40603;48.774;8.916;2023-06-10T07:57:41;5.20;;;4.30;;
54705;SDS011;40603;48.774;8.916;2023-06-10T08:00:07;5.53;;;4.15;;
54705;SDS011;40603;48.774;8.916;2023-06-10T08:02:33;5.82;;;3.72;;
54705;SDS011;40603;48.774;8.916;2023-06-10T08:04:58;5.07;;;4.13;;
54705;SDS011;40603;48.774;8.916;2023-06-10T08:07:24;4.65;;;3.85;;
54705;SDS011;40603;48.774;8.916;2023-06-10T08:09:50;4.78;;;4.28;;
54705;SDS011;40603;48.774;8.916;2023-06-10T08:12:15;4.88;;;4.18;;
54705;SDS011;40603;48.774;8.916;2023-06-10T08:14:41;4.00;;;3.60;;
54705;SDS011;40603;48.774;8.916;2023-06-10T08:17:06;6.60;;;5.20;;
54705;SDS011;40603;48.774;8.916;2023-06-10T08:19:31;5.68;;;4.57;;
54705;SDS011;40603;48.774;8.916;2023-06-10T08:21:57;5.32;;;4.18;;
54705;SDS011;40603;48.774;8.916;2023-06-10T08:24:22;5.18;;;4.68;;
54705;SDS011;40603;48.774;8.916;2023-06-10T08:26:47;6.68;;;5.05;;
54705;SDS011;40603;48.774;8.916;2023-06-10T08:29:13;7.82;;;5.07;;
54705;SDS011;40603;48.774;8.916;2023-06-10T08:31:42;6.80;;;5.15;;
54705;SDS011;40603;48.774;8.916;2023-06-10T08:34:08;7.95;;;4.95;;
54705;SDS011;40603;48.774;8.916;2023-06-10T08:36:33;6.55;;;5.45;;
54705;SDS011;40603;48.774;8.916;2023-06-10T08:38:58;6.28;;;4.90;;
54705;SDS011;40603;48.774;8.916;2023-06-10T08:41:24;9.50;;;4.60;;
54705;SDS011;40603;48.774;8.916;2023-06-10T08:43:59;7.80;;;4.63;;
54705;SDS011;40603;48.774;8.916;2023-06-10T08:46:31;5.07;;;4.57;;
54705;SDS011;40603;48.774;8.916;2023-06-10T08:48:57;5.22;;;4.65;;
54705;SDS011;40603;48.774;8.916;2023-06-10T08:51:27;7.30;;;4.55;;
54705;SDS011;40603;48.774;8.916;2023-06-10T08:53:58;6.03;;;4.43;;
54705;SDS011;40603;48.774;8.916;2023-06-10T08:56:27;5.95;;;4.53;;
54705;SDS011;40603;48.774;8.916;2023-06-10T08:58:53;7.15;;;4.70;;
54705;SDS011;40603;48.774;8.916;2023-06-10T09:01:18;6.18;;;4.13;;
54705;SDS011;40603;48.774;8.916;2023-06-10T09:03:44;6.05;;;4.03;;
54705;SDS011;40603;48.774;8.916;2023-06-10T09:06:09;5.15;;;3.78;;
54705;SDS011;40603;48.774;8.916;2023-06-10T09:08:35;7.07;;;4.07;;
54705;SDS011;40603;48.774;8.916;2023-06-10T09:11:00;8.57;;;3.97;;
54705;SDS011;40603;48.774;8.916;2023-06-10T09:13:26;4.05;;;3.60;;
54705;SDS011;40603;48.774;8.916;2023-06-10T09:15:51;5.07;;;3.65;;
54705;SDS011;40603;48.774;8.916;2023-06-10T09:18:16;4.90;;;3.83;;
54705;SDS011;40603;48.774;8.916;2023-06-10T09:20:42;7.10;;;4.35;;
54705;SDS011;40603;48.774;8.916;2023-06-10T09:23:08;4.25;;;3.75;;
54705;SDS011;40603;48.774;8.916;2023-06-10T09:25:34;4.80;;;3.85;;
54705;SDS011;40603;48.774;8.916;2023-06-10T09:28:01;4.57;;;3.92;;
54705;SDS011;40603;48.774;8.916;2023-06-10T09:30:32;4.65;;;4.25;;
54705;SDS011;40603;48.774;8.916;2023-06-10T09:32:59;4.65;;;4.18;;
54705;SDS011;40603;48.774;8.916;2023-06-10T09:35:27;4.80;;;4.18;;
54705;SDS011;40603;48.774;8.916;2023-06-10T09:37:53;5.55;;;3.97;;
54705;SDS011;40603;48.774;8.916;2023-06-10T09:40:19;5.47;;;4.25;;
54705;SDS011;40603;48.774;8.916;2023-06-10T09:42:46;4.90;;;3.92;;
54705;SDS011;40603;48.774;8.916;2023-06-10T09:45:14;4.80;;;3.90;;
54705;SDS011;40603;48.774;8.916;2023-06-10T09:47:39;12.25;;;4.72;;
54705;SDS011;40603;48.774;8.916;2023-06-10T09:50:04;6.50;;;4.50;;
54705;SDS011;40603;48.774;8.916;2023-06-10T09:52:30;4.53;;;3.95;;
54705;SDS011;40603;48.774;8.916;2023-06-10T09:54:59;4.05;;;3.65;;
54705;SDS011;40603;48.774;8.916;2023-06-10T09:57:25;6.85;;;4.10;;
54705;SDS011;40603;48.774;8.916;2023-06-10T09:59:54;5.15;;;4.57;;
54705;SDS011;40603;48.774;8.916;2023-06-10T10:02:19;4.20;;;3.78;;
54705;SDS011;40603;48.774;8.916;2023-06-10T10:04:45;6.30;;;4.10;;
54705;SDS011;40603;48.774;8.916;2023-06-10T10:07:10;6.18;;;4.50;;
54705;SDS011;40603;48.774;8.916;2023-06-10T10:09:39;4.90;;;3.80;;
54705;SDS011;40603;48.774;8.916;2023-06-10T10:12:15;6.13;;;3.92;;
54705;SDS011;40603;48.774;8.916;2023-06-10T10:14:43;4.90;;;4.28;;
54705;SDS011;40603;48.774;8.916;2023-06-10T10:17:11;4.53;;;3.90;;
54705;SDS011;40603;48.774;8.916;2023-06-10T10:19:48;5.88;;;3.85;;
54705;SDS011;40603;48.774;8.916;2023-06-10T10:22:20;6.00;;;4.38;;
54705;SDS011;40603;48.774;8.916;2023-06-10T10:24:51;5.43;;;3.88;;
54705;SDS011;40603;48.774;8.916;2023-06-10T10:27:36;5.72;;;3.80;;
54705;SDS011;40603;48.774;8.916;2023-06-10T10:30:05;4.00;;;3.50;;
54705;SDS011;40603;48.774;8.916;2023-06-10T10:32:35;4.30;;;3.90;;
54705;SDS011;40603;48.774;8.916;2023-06-10T10:35:12;4.30;;;3.90;;
54705;SDS011;40603;48.774;8.916;2023-06-10T10:37:42;4.38;;;3.78;;
54705;SDS011;40603;48.774;8.916;2023-06-10T10:40:08;4.50;;;3.65;;
54705;SDS011;40603;48.774;8.916;2023-06-10T10:42:33;3.70;;;3.30;;
54705;SDS011;40603;48.774;8.916;2023-06-10T10:44:59;5.80;;;3.53;;
54705;SDS011;40603;48.774;8.916;2023-06-10T10:47:26;4.80;;;4.05;;
54705;SDS011;40603;48.774;8.916;2023-06-10T10:49:54;4.80;;;3.97;;
54705;SDS011;40603;48.774;8.916;2023-06-10T10:52:19;5.90;;;4.15;;
54705;SDS011;40603;48.774;8.916;2023-06-10T10:54:45;4.38;;;3.92;;
54705;SDS011;40603;48.774;8.916;2023-06-10T10:57:18;5.03;;;3.65;;
54705;SDS011;40603;48.774;8.916;2023-06-10T11:05:16;3.97;;;3.58;;
54705;SDS011;40603;48.774;8.916;2023-06-10T11:07:51;4.15;;;3.80;;
54705;SDS011;40603;48.774;8.916;2023-06-10T11:19:37;4.53;;;3.40;;
54705;SDS011;40603;48.774;8.916;2023-06-10T11:22:42;4.22;;;3.75;;
54705;SDS011;40603;48.774;8.916;2023-06-10T11:25:38;3.95;;;3.50;;
54705;SDS011;40603;48.774;8.916;2023-06-10T11:28:06;4.30;;;3.53;;
54705;SDS011;40603;48.774;8.916;2023-06-10T11:30:42;5.93;;;3.92;;
54705;SDS011;40603;48.774;8.916;2023-06-10T11:33:07;4.25;;;3.70;;
54705;SDS011;40603;48.774;8.916;2023-06-10T11:35:33;3.95;;;3.55;;
54705;SDS011;40603;48.774;8.916;2023-06-10T11:37:58;4.03;;;3.63;;
54705;SDS011;40603;48.774;8.916;2023-06-10T11:40:24;7.95;;;3.83;;
54705;SDS011;40603;48.774;8.916;2023-06-10T11:42:49;4.75;;;3.72;;
54705;SDS011;40603;48.774;8.916;2023-06-10T11:45:15;6.40;;;3.50;;
54705;SDS011;40603;48.774;8.916;2023-06-10T11:47:59;7.32;;;3.80;;
54705;SDS011;40603;48.774;8.916;2023-06-10T11:50:28;5.55;;;3.65;;
54705;SDS011;40603;48.774;8.916;2023-06-10T11:52:55;4.88;;;3.10;;
54705;SDS011;40603;48.774;8.916;2023-06-10T11:55:21;5.15;;;3.88;;
54705;SDS011;40603;48.774;8.916;2023-06-10T11:57:46;4.45;;;3.53;;
54705;SDS011;40603;48.774;8.916;2023-06-10T12:00:12;3.85;;;3.45;;
54705;SDS011;40603;48.774;8.916;2023-06-10T12:02:38;5.70;;;3.17;;
54705;SDS011;40603;48.774;8.916;2023-06-10T12:05:10;6.22;;;3.83;;
54705;SDS011;40603;48.774;8.916;2023-06-10T12:07:37;4.40;;;3.17;;
54705;SDS011;40603;48.774;8.916;2023-06-10T12:10:02;5.07;;;3.75;;
54705;SDS011;40603;48.774;8.916;2023-06-10T12:12:28;4.18;;;3.40;;
54705;SDS011;40603;48.774;8.916;2023-06-10T12:17:22;5.32;;;3.33;;
54705;SDS011;40603;48.774;8.916;2023-06-10T12:19:57;3.72;;;3.00;;
54705;SDS011;40603;48.774;8.916;2023-06-10T12:22:23;4.05;;;3.55;;
54705;SDS011;40603;48.774;8.916;2023-06-10T12:24:59;6.05;;;3.33;;
54705;SDS011;40603;48.774;8.916;2023-06-10T12:27:26;3.33;;;3.03;;
54705;SDS011;40603;48.774;8.916;2023-06-10T12:29:55;4.25;;;3.30;;
54705;SDS011;40603;48.774;8.916;2023-06-10T12:32:22;5.78;;;3.63;;
54705;SDS011;40603;48.774;8.916;2023-06-10T12:35:03;3.60;;;3.15;;
54705;SDS011;40603;48.774;8.916;2023-06-10T12:37:29;3.75;;;3.30;;
54705;SDS011;40603;48.774;8.916;2023-06-10T12:39:55;6.05;;;3.58;;
54705;SDS011;40603;48.774;8.916;2023-06-10T12:42:21;3.92;;;3.22;;
54705;SDS011;40603;48.774;8.916;2023-06-10T12:44:47;3.17;;;2.88;;
54705;SDS011;40603;48.774;8.916;2023-06-10T12:47:18;7.72;;;3.20;;
54705;SDS011;40603;48.774;8.916;2023-06-10T12:49:43;4.57;;;3.38;;
54705;SDS011;40603;48.774;8.916;2023-06-10T12:52:09;4.18;;;2.85;;
54705;SDS011;40603;48.774;8.916;2023-06-10T12:54:34;3.38;;;3.05;;
54705;SDS011;40603;48.774;8.916;2023-06-10T12:56:59;4.70;;;3.08;;
54705;SDS011;40603;48.774;8.916;2023-06-10T12:59:25;3.33;;;2.92;;
54705;SDS011;40603;48.774;8.916;2023-06-10T13:01:52;5.95;;;3.03;;
54705;SDS011;40603;48.774;8.916;2023-06-10T13:04:22;3.38;;;3.08;;
54705;SDS011;40603;48.774;8.916;2023-06-10T13:06:48;8.05;;;3.22;;
54705;SDS011;40603;48.774;8.916;2023-06-10T13:09:14;3.10;;;2.72;;
54705;SDS011;40603;48.774;8.916;2023-06-10T13:11:40;4.72;;;3.13;;
54705;SDS011;40603;48.774;8.916;2023-06-10T13:14:05;4.05;;;3.10;;
54705;SDS011;40603;48.774;8.916;2023-06-10T13:16:31;4.70;;;2.80;;
54705;SDS011;40603;48.774;8.916;2023-06-10T13:18:57;3.38;;;2.95;;
54705;SDS011;40603;48.774;8.916;2023-06-10T13:21:22;6.97;;;3.00;;
54705;SDS011;40603;48.774;8.916;2023-06-10T13:23:47;4.38;;;3.10;;
54705;SDS011;40603;48.774;8.916;2023-06-10T13:26:13;5.15;;;4.00;;
54705;SDS011;40603;48.774;8.916;2023-06-10T13:28:39;5.78;;;3.70;;
54705;SDS011;40603;48.774;8.916;2023-06-10T13:31:05;3.88;;;3.17;;
54705;SDS011;40603;48.774;8.916;2023-06-10T13:33:30;6.38;;;3.38;;
54705;SDS011;40603;48.774;8.916;2023-06-10T13:35:55;3.53;;;2.92;;
54705;SDS011;40603;48.774;8.916;2023-06-10T13:38:20;5.57;;;3.30;;
54705;SDS011;40603;48.774;8.916;2023-06-10T13:40:46;5.80;;;2.90;;
54705;SDS011;40603;48.774;8.916;2023-06-10T13:43:11;5.75;;;2.83;;
54705;SDS011;40603;48.774;8.916;2023-06-10T13:45:38;3.55;;;3.20;;
54705;SDS011;40603;48.774;8.916;2023-06-10T13:48:03;2.90;;;2.65;;
54705;SDS011;40603;48.774;8.916;2023-06-10T13:50:30;3.90;;;2.63;;
54705;SDS011;40603;48.774;8.916;2023-06-10T13:52:56;3.03;;;2.50;;
54705;SDS011;40603;48.774;8.916;2023-06-10T13:55:21;3.35;;;3.00;;
54705;SDS011;40603;48.774;8.916;2023-06-10T13:57:46;3.97;;;3.15;;
54705;SDS011;40603;48.774;8.916;2023-06-10T14:00:12;4.05;;;3.20;;
54705;SDS011;40603;48.774;8.916;2023-06-10T14:02:37;3.45;;;3.00;;
54705;SDS011;40603;48.774;8.916;2023-06-10T14:05:03;3.20;;;2.65;;
54705;SDS011;40603;48.774;8.916;2023-06-10T14:07:30;3.58;;;2.67;;
54705;SDS011;40603;48.774;8.916;2023-06-10T14:09:55;2.88;;;2.63;;
54705;SDS011;40603;48.774;8.916;2023-06-10T14:12:21;2.75;;;2.42;;
54705;SDS011;40603;48.774;8.916;2023-06-10T14:14:47;3.65;;;2.92;;
54705;SDS011;40603;48.774;8.916;2023-06-10T14:17:12;3.13;;;2.83;;
54705;SDS011;40603;48.774;8.916;2023-06-10T14:19:37;5.10;;;2.80;;
54705;SDS011;40603;48.774;8.916;2023-06-10T14:22:03;3.58;;;2.92;;
54705;SDS011;40603;48.774;8.916;2023-06-10T14:24:28;4.15;;;2.30;;
54705;SDS011;40603;48.774;8.916;2023-06-10T14:26:53;5.20;;;2.78;;
54705;SDS011;40603;48.774;8.916;2023-06-10T14:29:19;4.70;;;2.70;;
54705;SDS011;40603;48.774;8.916;2023-06-10T14:31:44;2.63;;;2.42;;
54705;SDS011;40603;48.774;8.916;2023-06-10T14:34:09;4.72;;;2.80;;
54705;SDS011;40603;48.774;8.916;2023-06-10T14:36:35;6.00;;;2.92;;
54705;SDS011;40603;48.774;8.916;2023-06-10T14:39:00;3.00;;;2.17;;
54705;SDS011;40603;48.774;8.916;2023-06-10T14:41:25;6.32;;;2.97;;
54705;SDS011;40603;48.774;8.916;2023-06-10T14:43:51;4.10;;;2.70;;
54705;SDS011;40603;48.774;8.916;2023-06-10T14:46:16;2.78;;;2.58;;
54705;SDS011;40603;48.774;8.916;2023-06-10T14:48:42;3.63;;;2.53;;
54705;SDS011;40603;48.774;8.916;2023-06-10T14:51:07;3.17;;;2.88;;
54705;SDS011;40603;48.774;8.916;2023-06-10T14:53:33;3.17;;;2.60;;
54705;SDS011;40603;48.774;8.916;2023-06-10T14:55:58;2.80;;;2.40;;
54705;SDS011;40603;48.774;8.916;2023-06-10T14:58:23;4.93;;;3.10;;
54705;SDS011;40603;48.774;8.916;2023-06-10T15:00:49;3.85;;;2.80;;